This is the latest recevied weather packets stored in our database for station/object N7WSS. If no packets are shown the sender has not sent any weather packets the latest 10 day(s).
| Time | Temp. | Humidity | Pressure | Rain* | Wind** | Luminosity | Snow |
|---|---|---|---|---|---|---|---|
| 1777346013 | 21.11° C | 19% | 1011.4 hPa | 0 mm | - | - | - |
| 1777345710 | 21.11° C | 19% | 1011.1 hPa | 0 mm | - | - | - |
| 1777345407 | 21.11° C | 18% | 1011.1 hPa | 0 mm | - | - | - |
| 1777345104 | 21.11° C | 18% | 1010.8 hPa | 0 mm | - | - | - |
| 1777344800 | 21.67° C | 17% | 1010.8 hPa | 0 mm | - | - | - |
| 1777344496 | 21.67° C | 17% | 1010.7 hPa | 0 mm | - | - | - |
| 1777343891 | 22.78° C | 16% | 1010.4 hPa | 0 mm | - | - | - |
| 1777343588 | 22.78° C | 15% | 1010.3 hPa | 0 mm | - | - | - |
| 1777343285 | 22.78° C | 15% | 1010.3 hPa | 0 mm | - | - | - |
| 1777342074 | 23.33° C | 14% | 1010 hPa | 0 mm | - | - | - |
| 1777341163 | 24.44° C | 13% | 1009.9 hPa | 0 mm | - | - | - |
| 1777340860 | 24.44° C | 14% | 1009.9 hPa | 0 mm | - | - | - |
| 1777339952 | 25° C | 14% | 1009.4 hPa | 0 mm | - | - | - |
| 1777339347 | 25° C | 14% | 1009.4 hPa | 0 mm | - | - | - |
| 1777339045 | 25.56° C | 14% | 1009.5 hPa | 0 mm | - | - | - |
| 1777338741 | 25.56° C | 14% | 1009.3 hPa | 0 mm | - | - | - |
| 1777337832 | 26.67° C | 12% | 1009.1 hPa | 0 mm | - | - | - |
| 1777337226 | 26.67° C | 12% | 1009 hPa | 0 mm | - | - | - |
| 1777336321 | 26.67° C | 11% | 1009.2 hPa | 0 mm | - | - | - |
| 1777336017 | 27.22° C | 11% | 1009.2 hPa | 0 mm | - | - | - |
| 1777334806 | 27.78° C | 12% | 1009.1 hPa | 0 mm | - | - | - |
| 1777329662 | 27.78° C | 17% | 1009.4 hPa | 0 mm | - | - | - |
| 1777329056 | 27.22° C | 17% | 1009.5 hPa | 0 mm | - | - | - |
| 1777313613 | 23.89° C | 24% | 1012.1 hPa | 0 mm | - | - | - |
| 1777313007 | 22.78° C | 24% | 1012.1 hPa | 0 mm | - | - | - |
* Rain latest hour (hover to see other rain measurements)
** Current wind speed in m/s (hover to see current wind gust speed)